Time;durP1;ratioP1;P1;durP2;ratioP2;P2;SDS_P1;SDS_P2;PMS_P1;PMS_P2;Temp;Humidity;BMP_temperature;BMP_pressure;BME280_temperature;BME280_humidity;BME280_pressure;Samples;Min_cycle;Max_cycle;Signal;HPM_P1;HPM_P2
2022/02/16 00:00:49;;;;;;;5.65;4.00;;;5.40;99.90;;;;;;2122839;27;20045;-72
2022/02/16 00:01:50;;;;;;;6.10;3.70;;;5.40;99.90;;;;;;2122890;27;20688;-71
2022/02/16 00:02:51;;;;;;;4.75;3.80;;;5.30;99.90;;;;;;2123307;27;20112;-74
2022/02/16 00:03:51;;;;;;;7.03;4.00;;;5.30;99.90;;;;;;2122702;27;20094;-75
2022/02/16 00:04:52;;;;;;;8.68;4.40;;;5.30;99.90;;;;;;2122936;27;20385;-72
2022/02/16 00:05:53;;;;;;;7.45;4.05;;;5.30;99.90;;;;;;2121718;27;20071;-72
2022/02/16 00:06:54;;;;;;;6.30;3.92;;;5.30;99.90;;;;;;2122070;27;20429;-72
2022/02/16 00:07:54;;;;;;;7.28;3.80;;;5.30;99.90;;;;;;2112705;28;20162;-72
2022/02/16 00:08:55;;;;;;;5.18;3.47;;;5.30;99.90;;;;;;2113827;28;20089;-73
2022/02/16 00:09:56;;;;;;;8.98;3.97;;;5.30;99.90;;;;;;2113420;28;20032;-72
2022/02/16 00:10:56;;;;;;;4.50;3.67;;;5.30;99.90;;;;;;2122041;27;20034;-72
2022/02/16 00:11:57;;;;;;;5.63;3.72;;;5.30;99.90;;;;;;2122246;27;20450;-73
2022/02/16 00:12:58;;;;;;;5.22;3.80;;;5.20;99.90;;;;;;2122552;27;20481;-72
2022/02/16 00:13:58;;;;;;;6.38;3.60;;;5.20;99.90;;;;;;2122931;27;20496;-72
2022/02/16 00:14:59;;;;;;;5.32;3.70;;;5.20;99.90;;;;;;2121783;27;20034;-72
2022/02/16 00:16:00;;;;;;;4.45;3.30;;;5.20;99.90;;;;;;2122502;27;20079;-72
2022/02/16 00:17:00;;;;;;;5.00;4.03;;;5.20;99.90;;;;;;2121761;27;20047;-71
2022/02/16 00:18:04;;;;;;;5.07;3.78;;;5.30;99.90;;;;;;2122717;27;20027;-72
2022/02/16 00:19:04;;;;;;;6.60;3.60;;;5.30;99.90;;;;;;2114733;28;20356;-73
2022/02/16 00:20:07;;;;;;;5.25;3.40;;;5.20;99.90;;;;;;2122422;27;20111;-72
2022/02/16 00:21:08;;;;;;;5.45;3.80;;;5.30;99.90;;;;;;2122134;27;20041;-72
2022/02/16 00:22:09;;;;;;;4.32;3.38;;;5.30;99.90;;;;;;2113542;28;20073;-71
2022/02/16 00:23:10;;;;;;;5.28;3.58;;;5.30;99.90;;;;;;2113810;28;20028;-72
2022/02/16 00:24:10;;;;;;;4.60;3.63;;;5.20;99.90;;;;;;2123149;27;20034;-72
2022/02/16 00:25:11;;;;;;;4.60;3.47;;;5.20;99.90;;;;;;2123989;27;20099;-72
2022/02/16 00:26:12;;;;;;;4.47;3.40;;;5.30;99.90;;;;;;2124021;27;20035;-73
2022/02/16 00:27:13;;;;;;;5.63;3.45;;;5.20;99.90;;;;;;2123844;27;20027;-72
2022/02/16 00:28:17;;;;;;;5.07;3.53;;;5.20;99.90;;;;;;2123647;27;20107;-72
2022/02/16 00:29:18;;;;;;;5.25;3.60;;;5.20;99.90;;;;;;2123200;27;20069;-73
2022/02/16 00:30:19;;;;;;;5.05;3.65;;;5.20;99.90;;;;;;2114441;28;20036;-71
2022/02/16 00:31:19;;;;;;;6.20;3.97;;;5.30;99.90;;;;;;2114431;28;20020;-71
2022/02/16 00:32:22;;;;;;;7.05;3.92;;;5.20;99.90;;;;;;2122971;27;20351;-72
2022/02/16 00:33:22;;;;;;;6.35;3.60;;;5.30;99.90;;;;;;2123900;27;20027;-71
2022/02/16 00:34:23;;;;;;;7.30;4.13;;;5.30;99.90;;;;;;2123642;27;20412;-71
2022/02/16 00:35:24;;;;;;;4.35;3.42;;;5.40;99.90;;;;;;2124174;27;20039;-71
2022/02/16 00:36:25;;;;;;;5.55;3.58;;;5.40;99.90;;;;;;2114625;28;20030;-73
2022/02/16 00:37:26;;;;;;;7.68;3.85;;;5.40;99.90;;;;;;2115262;28;20093;-72
2022/02/16 00:38:26;;;;;;;4.97;3.65;;;5.40;99.90;;;;;;2124097;27;20019;-73
2022/02/16 00:39:28;;;;;;;4.85;3.47;;;5.40;99.90;;;;;;2123772;27;20052;-71
2022/02/16 00:40:29;;;;;;;6.82;3.50;;;5.50;99.90;;;;;;2114457;28;20069;-72
2022/02/16 00:41:30;;;;;;;8.02;3.58;;;5.50;99.90;;;;;;2114930;28;20371;-71
2022/02/16 00:42:30;;;;;;;4.82;3.42;;;5.50;99.90;;;;;;2114844;28;20027;-72
2022/02/16 00:43:32;;;;;;;4.20;3.42;;;5.50;99.90;;;;;;2123445;27;20055;-72
2022/02/16 00:44:32;;;;;;;7.35;3.25;;;5.50;99.90;;;;;;2123464;27;20034;-72
2022/02/16 00:45:33;;;;;;;5.32;3.30;;;5.50;99.90;;;;;;2123833;27;20019;-71
2022/02/16 00:46:34;;;;;;;5.18;3.63;;;5.50;99.90;;;;;;2123699;27;20030;-71
2022/02/16 00:47:35;;;;;;;4.95;3.20;;;5.60;99.90;;;;;;2123038;27;20041;-74
2022/02/16 00:48:35;;;;;;;6.53;3.60;;;5.50;99.90;;;;;;2122751;27;20034;-72
2022/02/16 00:49:36;;;;;;;8.27;4.68;;;5.60;99.90;;;;;;2123492;27;20126;-72
2022/02/16 00:50:39;;;;;;;6.53;3.50;;;5.60;99.90;;;;;;2122536;27;20509;-71
2022/02/16 00:51:42;;;;;;;7.45;3.58;;;5.60;99.90;;;;;;2122726;27;20026;-71
2022/02/16 00:52:43;;;;;;;6.57;3.60;;;5.60;99.90;;;;;;2122552;27;20027;-72
2022/02/16 00:53:44;;;;;;;7.80;3.80;;;5.70;99.90;;;;;;2114431;28;20090;-73
2022/02/16 00:54:45;;;;;;;4.63;3.42;;;5.60;99.90;;;;;;2122922;27;20043;-72
2022/02/16 00:55:47;;;;;;;8.32;3.88;;;5.70;99.90;;;;;;2122929;27;20019;-71
2022/02/16 00:56:49;;;;;;;5.93;3.40;;;5.70;99.90;;;;;;2122908;27;20027;-73
2022/02/16 00:57:56;;;;;;;7.90;3.53;;;5.70;99.90;;;;;;2114612;28;20055;-72
2022/02/16 00:59:00;;;;;;;8.82;3.80;;;5.70;99.90;;;;;;2116121;27;20035;-74
2022/02/16 01:00:01;;;;;;;5.57;3.72;;;5.70;99.90;;;;;;2114775;28;20030;-73
2022/02/16 01:01:06;;;;;;;5.47;3.60;;;5.70;99.90;;;;;;2117734;27;20181;-72
2022/02/16 01:02:07;;;;;;;7.43;3.67;;;5.70;99.90;;;;;;2125950;27;20054;-73
2022/02/16 01:03:08;;;;;;;7.47;3.78;;;5.70;99.90;;;;;;2126840;27;20098;-72
2022/02/16 01:04:08;;;;;;;5.82;3.80;;;5.70;99.90;;;;;;2126039;27;21668;-71
2022/02/16 01:05:09;;;;;;;4.65;3.60;;;5.70;99.90;;;;;;2126515;27;20031;-73
2022/02/16 01:06:12;;;;;;;7.18;3.42;;;5.70;99.90;;;;;;2127536;27;20031;-73
2022/02/16 01:07:13;;;;;;;6.15;3.60;;;5.70;99.90;;;;;;2126267;27;20072;-73
2022/02/16 01:08:15;;;;;;;5.35;3.50;;;5.70;99.90;;;;;;2124825;27;20027;-72
2022/02/16 01:09:16;;;;;;;5.65;3.78;;;5.70;99.90;;;;;;2124944;27;20367;-72
2022/02/16 01:10:18;;;;;;;4.90;3.50;;;5.70;99.90;;;;;;2123378;27;20478;-71
2022/02/16 01:11:23;;;;;;;7.25;3.60;;;5.80;99.90;;;;;;2114982;28;20086;-73
2022/02/16 01:12:25;;;;;;;5.00;3.65;;;5.80;99.90;;;;;;2114905;28;20115;-73
2022/02/16 01:13:29;;;;;;;7.15;3.40;;;5.80;99.90;;;;;;2114850;28;20032;-72
2022/02/16 01:14:30;;;;;;;5.30;3.60;;;5.80;99.90;;;;;;2114419;28;20030;-73
2022/02/16 01:15:44;;;;;;;5.80;3.30;;;5.80;99.90;;;;;;2122928;27;20019;-73
2022/02/16 01:16:44;;;;;;;4.57;3.53;;;5.80;99.90;;;;;;2123130;27;20015;-73
2022/02/16 01:18:01;;;;;;;5.88;4.00;;;5.80;99.90;;;;;;2122814;27;20047;-72
2022/02/16 01:19:21;;;;;;;6.40;3.65;;;5.80;99.90;;;;;;2114121;28;20039;-72
2022/02/16 01:20:22;;;;;;;7.80;3.75;;;5.90;99.90;;;;;;2107721;28;20590;-73
2022/02/16 01:21:31;;;;;;;6.25;3.40;;;5.90;99.90;;;;;;2115152;27;20028;-72
2022/02/16 01:22:32;;;;;;;5.65;3.58;;;5.90;99.90;;;;;;2114180;28;20020;-72
2022/02/16 01:23:35;;;;;;;5.43;3.80;;;5.90;99.90;;;;;;2115326;28;20042;-71
2022/02/16 01:24:38;;;;;;;7.30;3.60;;;5.90;99.90;;;;;;2106328;28;20055;-71
2022/02/16 01:25:41;;;;;;;6.57;3.63;;;5.90;99.90;;;;;;2115560;27;20023;-71
2022/02/16 01:26:50;;;;;;;5.78;3.60;;;5.90;99.90;;;;;;2115893;28;20020;-73
2022/02/16 01:27:52;;;;;;;4.85;3.58;;;5.90;99.90;;;;;;2106581;28;20016;-73
2022/02/16 01:28:55;;;;;;;8.05;4.25;;;5.90;99.90;;;;;;2107065;27;20024;-72
2022/02/16 01:29:56;;;;;;;4.85;3.50;;;5.80;99.90;;;;;;2113961;28;20074;-74
2022/02/16 01:31:05;;;;;;;6.03;3.70;;;5.90;99.90;;;;;;2122904;27;20030;-72
2022/02/16 01:32:08;;;;;;;7.28;3.65;;;5.90;99.90;;;;;;2113585;27;20093;-72
2022/02/16 01:33:09;;;;;;;7.43;3.97;;;5.80;99.90;;;;;;2113660;28;20031;-72
2022/02/16 01:34:28;;;;;;;5.15;3.30;;;5.80;99.90;;;;;;2115913;27;20038;-72
2022/02/16 01:35:29;;;;;;;8.27;3.70;;;5.80;99.90;;;;;;2113271;28;20069;-72
2022/02/16 01:36:30;;;;;;;4.68;3.50;;;5.80;99.90;;;;;;2121581;27;20080;-72
2022/02/16 01:37:31;;;;;;;5.13;3.38;;;5.80;99.90;;;;;;2113501;28;20031;-73
2022/02/16 01:38:32;;;;;;;9.95;3.97;;;5.70;99.90;;;;;;2113744;28;20037;-72
2022/02/16 01:39:46;;;;;;;7.70;3.70;;;5.70;99.90;;;;;;2114649;28;20180;-71
2022/02/16 01:40:47;;;;;;;7.13;3.63;;;5.70;99.90;;;;;;2121766;27;20048;-72
2022/02/16 01:41:49;;;;;;;4.80;3.50;;;5.70;99.90;;;;;;2112610;28;20541;-74
2022/02/16 01:42:54;;;;;;;5.50;3.42;;;5.70;99.90;;;;;;2114296;27;20098;-72
2022/02/16 01:44:05;;;;;;;7.07;3.55;;;5.70;99.90;;;;;;2114740;27;20054;-71
2022/02/16 01:45:07;;;;;;;8.40;3.83;;;5.70;99.90;;;;;;2113572;28;20031;-72
2022/02/16 01:46:08;;;;;;;6.88;3.50;;;5.70;99.90;;;;;;2105612;28;20024;-73
2022/02/16 01:47:09;;;;;;;5.88;3.40;;;5.70;99.90;;;;;;2113502;28;20035;-71
2022/02/16 01:48:12;;;;;;;4.82;3.50;;;5.70;99.90;;;;;;2122342;28;20019;-71
2022/02/16 01:49:12;;;;;;;4.15;3.40;;;5.60;99.90;;;;;;2113149;28;20024;-71
2022/02/16 01:50:13;;;;;;;5.32;3.50;;;5.60;99.90;;;;;;2122138;27;20011;-72
2022/02/16 01:51:14;;;;;;;6.25;3.42;;;5.50;99.90;;;;;;2121903;27;20108;-72
2022/02/16 01:52:17;;;;;;;6.90;3.70;;;5.50;99.90;;;;;;2113566;28;20043;-72
2022/02/16 01:53:20;;;;;;;6.22;3.65;;;5.50;99.90;;;;;;2113390;28;20109;-71
2022/02/16 01:54:21;;;;;;;5.65;3.60;;;5.50;99.90;;;;;;2112852;28;20035;-71
2022/02/16 01:55:22;;;;;;;6.32;3.55;;;5.50;99.90;;;;;;2113249;28;20078;-71
2022/02/16 01:56:24;;;;;;;6.65;3.90;;;5.60;99.90;;;;;;2122055;28;20031;-71
2022/02/16 01:57:26;;;;;;;6.20;3.97;;;5.60;99.90;;;;;;2105864;28;20032;-71
2022/02/16 01:58:34;;;;;;;7.60;3.40;;;5.60;99.90;;;;;;2106805;28;20403;-71
2022/02/16 01:59:48;;;;;;;5.95;3.47;;;5.60;99.90;;;;;;2121691;28;20044;-72
2022/02/16 02:01:17;;;;;;;;;;;5.60;99.90;;;;;;2123211;27;20027;-73
2022/02/16 02:02:34;;;;;;;6.20;3.50;;;5.60;99.90;;;;;;2113525;28;19908;-73
2022/02/16 02:03:48;;;;;;;5.80;3.50;;;5.60;99.90;;;;;;2108478;28;20038;-72
2022/02/16 02:04:49;;;;;;;6.53;3.40;;;5.60;99.90;;;;;;2113474;28;20027;-72
2022/02/16 02:05:53;;;;;;;7.32;3.60;;;5.60;99.90;;;;;;2113053;28;20158;-72
2022/02/16 02:06:57;;;;;;;6.03;3.30;;;5.60;99.90;;;;;;2105320;28;20098;-71
2022/02/16 02:07:58;;;;;;;6.35;3.38;;;5.60;99.90;;;;;;2105638;28;20024;-72
2022/02/16 02:08:58;;;;;;;5.68;3.58;;;5.60;99.90;;;;;;2113423;28;20490;-73
2022/02/16 02:10:02;;;;;;;5.97;3.50;;;5.70;99.90;;;;;;2112783;28;20543;-73
2022/02/16 02:11:04;;;;;;;5.70;3.80;;;5.70;99.90;;;;;;2105158;28;20580;-74
2022/02/16 02:12:07;;;;;;;5.18;3.45;;;5.60;99.90;;;;;;2106658;28;20119;-72
2022/02/16 02:13:18;;;;;;;5.82;3.35;;;5.60;99.90;;;;;;2113919;28;20028;-72
2022/02/16 02:14:26;;;;;;;6.35;3.70;;;5.60;99.90;;;;;;2115718;27;20111;-72
2022/02/16 02:15:53;;;;;;;6.72;3.03;;;5.60;99.90;;;;;;2118642;27;20478;-73
2022/02/16 02:16:57;;;;;;;4.63;3.17;;;5.60;99.90;;;;;;2123964;27;20035;-73
2022/02/16 02:17:59;;;;;;;5.85;3.70;;;5.60;99.90;;;;;;2123382;27;20068;-72
2022/02/16 02:19:00;;;;;;;5.15;3.33;;;5.60;99.90;;;;;;2123519;27;20050;-72
2022/02/16 02:20:02;;;;;;;6.32;3.47;;;5.60;99.90;;;;;;2114522;28;20058;-72
2022/02/16 02:21:03;;;;;;;7.13;3.53;;;5.60;99.90;;;;;;2115994;28;20030;-72
2022/02/16 02:22:04;;;;;;;4.88;3.20;;;5.60;99.90;;;;;;2125618;27;20058;-72
2022/02/16 02:23:05;;;;;;;6.40;3.25;;;5.60;99.90;;;;;;2116591;28;20028;-72
2022/02/16 02:24:07;;;;;;;6.68;3.35;;;5.60;99.90;;;;;;2098144;28;20537;-73
2022/02/16 02:25:08;;;;;;;11.02;3.58;;;5.60;99.90;;;;;;2106322;28;20135;-72
2022/02/16 02:26:08;;;;;;;6.53;3.40;;;5.60;99.90;;;;;;2114896;28;20060;-72
2022/02/16 02:27:09;;;;;;;5.25;3.28;;;5.70;99.90;;;;;;2114568;28;20376;-72
2022/02/16 02:28:10;;;;;;;6.15;3.40;;;5.70;99.90;;;;;;2114427;28;20027;-72
2022/02/16 02:29:11;;;;;;;8.30;3.40;;;5.70;99.90;;;;;;2114338;28;20031;-72
2022/02/16 02:30:20;;;;;;;7.45;3.33;;;5.60;99.90;;;;;;2115836;27;20042;-72
2022/02/16 02:31:32;;;;;;;5.63;3.40;;;5.70;99.90;;;;;;2114676;28;20031;-72
2022/02/16 02:32:33;;;;;;;4.90;3.00;;;5.70;99.90;;;;;;2116109;27;20506;-73
2022/02/16 02:33:34;;;;;;;4.15;3.10;;;5.70;99.90;;;;;;2105963;28;20111;-73
2022/02/16 02:34:35;;;;;;;4.95;3.00;;;5.70;99.90;;;;;;2106289;28;20070;-73
2022/02/16 02:35:35;;;;;;;3.40;2.72;;;5.70;99.90;;;;;;2115718;28;20034;-74
2022/02/16 02:36:36;;;;;;;4.90;3.20;;;5.70;99.90;;;;;;2115697;28;20024;-73
2022/02/16 02:37:38;;;;;;;5.03;2.97;;;5.70;99.90;;;;;;2124281;27;20055;-73
2022/02/16 02:38:39;;;;;;;6.28;2.80;;;5.70;99.90;;;;;;2116037;27;20440;-73
2022/02/16 02:39:40;;;;;;;3.78;2.72;;;5.70;99.90;;;;;;2115384;28;20020;-73
2022/02/16 02:40:41;;;;;;;5.28;3.10;;;5.70;99.90;;;;;;2114677;28;20072;-73
2022/02/16 02:41:42;;;;;;;6.03;3.15;;;5.60;99.90;;;;;;2114102;28;20051;-73
2022/02/16 02:42:42;;;;;;;4.85;3.20;;;5.60;99.90;;;;;;2114514;28;20547;-74
2022/02/16 02:43:47;;;;;;;4.10;3.13;;;5.60;99.90;;;;;;2114700;27;20496;-73
2022/02/16 02:44:47;;;;;;;4.45;3.20;;;5.60;99.90;;;;;;2114592;27;20032;-73
2022/02/16 02:45:48;;;;;;;4.28;2.92;;;5.60;99.90;;;;;;2114369;28;20686;-73
2022/02/16 02:46:50;;;;;;;4.55;3.40;;;5.50;99.90;;;;;;2123144;27;20020;-73
2022/02/16 02:47:55;;;;;;;3.63;3.13;;;5.50;99.90;;;;;;2114726;28;20027;-73
2022/02/16 02:48:55;;;;;;;4.47;3.20;;;5.50;99.90;;;;;;2106660;28;20043;-71
2022/02/16 02:49:57;;;;;;;3.58;3.03;;;5.50;99.90;;;;;;2114389;28;20434;-73
2022/02/16 02:50:58;;;;;;;3.47;3.15;;;5.50;99.90;;;;;;2114522;28;20028;-73
2022/02/16 02:51:58;;;;;;;3.63;2.90;;;5.50;99.90;;;;;;2114337;28;20066;-74
2022/02/16 02:53:02;;;;;;;4.32;3.33;;;5.50;99.90;;;;;;2122851;27;20551;-73
2022/02/16 02:54:03;;;;;;;5.40;3.15;;;5.50;99.90;;;;;;2122824;27;20048;-71
2022/02/16 02:55:13;;;;;;;4.13;3.40;;;5.40;99.90;;;;;;2115971;27;20097;-73
2022/02/16 02:56:16;;;;;;;6.18;3.70;;;5.50;99.90;;;;;;2115626;27;20514;-72
2022/02/16 02:57:17;;;;;;;5.68;3.47;;;5.40;99.90;;;;;;2115545;28;20028;-73
2022/02/16 02:58:18;;;;;;;6.10;3.53;;;5.40;99.90;;;;;;2115278;28;20028;-72
2022/02/16 02:59:22;;;;;;;6.30;3.50;;;5.40;99.90;;;;;;2107404;28;20047;-72
2022/02/16 03:00:27;;;;;;;5.68;3.70;;;5.40;99.90;;;;;;2114187;27;20058;-73
2022/02/16 03:01:29;;;;;;;5.57;3.80;;;5.40;99.90;;;;;;2114116;27;20541;-72
2022/02/16 03:02:31;;;;;;;5.82;3.65;;;5.50;99.90;;;;;;2122982;27;20693;-72
2022/02/16 03:03:35;;;;;;;4.13;3.22;;;5.50;99.90;;;;;;2122825;27;20020;-72
2022/02/16 03:04:36;;;;;;;4.53;3.30;;;5.50;99.90;;;;;;2122861;27;20027;-72
2022/02/16 03:05:36;;;;;;;6.13;3.60;;;5.50;99.90;;;;;;2114342;28;20186;-72
2022/02/16 03:06:37;;;;;;;7.13;3.75;;;5.50;99.90;;;;;;2114624;28;20515;-72
2022/02/16 03:07:39;;;;;;;5.82;3.35;;;5.60;99.90;;;;;;2114692;28;20027;-72
2022/02/16 03:08:40;;;;;;;7.20;3.20;;;5.60;99.90;;;;;;2114915;27;20069;-71
2022/02/16 03:09:41;;;;;;;4.28;3.30;;;5.60;99.90;;;;;;2122994;27;20435;-71
2022/02/16 03:10:42;;;;;;;6.75;3.30;;;5.60;99.90;;;;;;2122644;27;20122;-72
2022/02/16 03:11:43;;;;;;;4.68;3.00;;;5.60;99.90;;;;;;2114056;28;20498;-73
2022/02/16 03:12:43;;;;;;;4.63;3.10;;;5.60;99.90;;;;;;2123174;27;20094;-72
2022/02/16 03:13:49;;;;;;;5.82;3.20;;;5.60;99.90;;;;;;2124578;27;20631;-72
2022/02/16 03:14:59;;;;;;;4.95;3.17;;;5.70;99.90;;;;;;2117748;27;20077;-72
2022/02/16 03:16:00;;;;;;;5.22;3.40;;;5.70;99.90;;;;;;2114736;28;20023;-72
2022/02/16 03:17:02;;;;;;;3.60;2.92;;;5.70;99.90;;;;;;2106325;28;20028;-71
2022/02/16 03:18:03;;;;;;;4.47;3.08;;;5.70;99.90;;;;;;2121642;27;20031;-72
2022/02/16 03:19:05;;;;;;;4.50;2.90;;;5.70;99.90;;;;;;2113645;28;20026;-72
2022/02/16 03:20:07;;;;;;;4.75;2.92;;;5.70;99.90;;;;;;2122194;27;20055;-72
2022/02/16 03:21:08;;;;;;;5.47;3.20;;;5.70;99.90;;;;;;2105657;28;20484;-72
2022/02/16 03:22:08;;;;;;;5.55;3.40;;;5.80;99.90;;;;;;2097055;28;20036;-72
2022/02/16 03:23:09;;;;;;;5.30;3.08;;;5.80;99.90;;;;;;2105778;28;20035;-71
2022/02/16 03:24:11;;;;;;;5.97;3.22;;;5.80;99.90;;;;;;2097400;28;20033;-72
2022/02/16 03:25:12;;;;;;;4.65;3.17;;;5.80;99.90;;;;;;2097452;28;20042;-71
2022/02/16 03:26:12;;;;;;;4.43;3.10;;;5.80;99.90;;;;;;2114260;28;20030;-72
2022/02/16 03:27:13;;;;;;;5.38;3.28;;;5.90;99.90;;;;;;2113620;28;20513;-73
2022/02/16 03:28:28;;;;;;;5.93;2.90;;;5.90;99.90;;;;;;2099420;28;20029;-71
2022/02/16 03:29:45;;;;;;;4.38;3.10;;;5.90;99.90;;;;;;2103350;28;20047;-72
2022/02/16 03:30:46;;;;;;;6.82;3.30;;;6.00;99.90;;;;;;2105737;28;20438;-71
2022/02/16 03:31:47;;;;;;;6.22;3.47;;;6.00;99.90;;;;;;2113714;28;20096;-72
2022/02/16 03:32:47;;;;;;;8.60;3.38;;;6.00;99.90;;;;;;2114314;28;20069;-72
2022/02/16 03:33:48;;;;;;;6.55;4.20;;;6.00;99.90;;;;;;2114846;28;20023;-72
2022/02/16 03:34:49;;;;;;;9.20;4.07;;;6.10;99.90;;;;;;2114687;28;20027;-73
2022/02/16 03:35:49;;;;;;;8.13;4.30;;;6.10;99.90;;;;;;2114210;28;20442;-72
2022/02/16 03:36:50;;;;;;;8.20;4.10;;;6.10;99.90;;;;;;2105918;28;20024;-72
2022/02/16 03:37:51;;;;;;;10.13;4.60;;;6.10;99.90;;;;;;2105807;28;20056;-72
2022/02/16 03:38:53;;;;;;;12.10;4.50;;;6.20;99.90;;;;;;2105909;28;20399;-72
2022/02/16 03:39:58;;;;;;;9.93;4.30;;;6.20;99.90;;;;;;2106029;28;20031;-72
2022/02/16 03:40:58;;;;;;;9.23;4.30;;;6.30;99.90;;;;;;2105771;28;20061;-73
2022/02/16 03:42:01;;;;;;;7.40;3.83;;;6.30;99.90;;;;;;2105586;28;20035;-73
2022/02/16 03:43:01;;;;;;;7.53;3.65;;;6.30;99.90;;;;;;2097735;28;20056;-73
2022/02/16 03:44:03;;;;;;;9.18;3.88;;;6.30;99.90;;;;;;2105469;28;20085;-73
2022/02/16 03:45:11;;;;;;;8.20;3.88;;;6.30;99.90;;;;;;2106760;28;20024;-73
2022/02/16 03:46:26;;;;;;;6.60;3.70;;;6.40;99.90;;;;;;2107328;28;20024;-73
2022/02/16 03:47:26;;;;;;;6.60;3.50;;;6.40;99.90;;;;;;2114198;28;20091;-73
2022/02/16 03:48:27;;;;;;;6.25;3.30;;;6.40;99.90;;;;;;2113922;28;20023;-73
2022/02/16 03:49:28;;;;;;;7.93;3.30;;;6.40;99.90;;;;;;2114046;28;20026;-73
2022/02/16 03:50:33;;;;;;;4.68;2.92;;;6.40;99.90;;;;;;2105524;28;20139;-73
2022/02/16 03:51:33;;;;;;;4.72;2.97;;;6.40;99.90;;;;;;2113783;28;20078;-73
2022/02/16 03:52:34;;;;;;;5.68;3.00;;;6.50;99.90;;;;;;2113954;28;20020;-73
2022/02/16 03:53:35;;;;;;;4.85;2.78;;;6.50;99.90;;;;;;2113990;28;20031;-73
2022/02/16 03:54:35;;;;;;;7.35;3.05;;;6.50;99.90;;;;;;2113958;28;20042;-72
2022/02/16 03:55:38;;;;;;;5.05;2.85;;;6.50;99.90;;;;;;2113732;28;20077;-73
2022/02/16 03:56:41;;;;;;;6.10;3.00;;;6.50;99.90;;;;;;2113841;28;20024;-72
2022/02/16 03:57:42;;;;;;;5.47;3.00;;;6.40;99.90;;;;;;2114639;28;20118;-73
2022/02/16 03:58:43;;;;;;;5.10;2.63;;;6.50;99.90;;;;;;2106470;28;20024;-72
2022/02/16 03:59:46;;;;;;;6.93;3.00;;;6.50;99.90;;;;;;2106688;28;20115;-71
2022/02/16 04:01:13;;;;;;;5.22;2.70;;;6.50;99.90;;;;;;2113065;28;20036;-71
2022/02/16 04:02:13;;;;;;;4.97;2.90;;;6.50;99.90;;;;;;2113536;28;20059;-71
2022/02/16 04:03:15;;;;;;;5.70;3.10;;;6.50;99.90;;;;;;2105591;28;20020;-72
2022/02/16 04:04:15;;;;;;;4.45;2.90;;;6.40;99.90;;;;;;2113697;27;20553;-72
2022/02/16 04:05:16;;;;;;;7.75;2.88;;;6.50;99.90;;;;;;2122421;27;20023;-72
2022/02/16 04:06:18;;;;;;;5.85;2.60;;;6.50;99.90;;;;;;2113677;28;20024;-72
2022/02/16 04:07:21;;;;;;;4.13;2.60;;;6.50;99.90;;;;;;2105393;28;20248;-72
2022/02/16 04:08:22;;;;;;;4.30;2.70;;;6.50;99.90;;;;;;2097525;28;20052;-72
2022/02/16 04:09:23;;;;;;;5.72;2.83;;;6.50;99.90;;;;;;2105301;28;20043;-72
2022/02/16 04:10:23;;;;;;;6.40;2.80;;;6.60;99.90;;;;;;2096481;28;20052;-72
2022/02/16 04:11:26;;;;;;;5.00;2.80;;;6.60;99.90;;;;;;2105182;28;20028;-72
2022/02/16 04:12:27;;;;;;;5.55;2.80;;;6.60;99.90;;;;;;2113856;28;20066;-71
2022/02/16 04:13:28;;;;;;;5.15;2.70;;;6.60;99.90;;;;;;2105359;28;20028;-72
2022/02/16 04:14:29;;;;;;;4.93;3.20;;;6.70;99.90;;;;;;2113651;28;20502;-72
2022/02/16 04:15:30;;;;;;;4.60;2.65;;;6.70;99.90;;;;;;2114847;28;20061;-72
2022/02/16 04:16:38;;;;;;;6.63;2.80;;;6.70;99.90;;;;;;2116925;28;20020;-71
2022/02/16 04:17:39;;;;;;;5.60;2.60;;;6.70;99.90;;;;;;2116890;28;20104;-72
2022/02/16 04:18:44;;;;;;;5.38;2.60;;;6.70;99.90;;;;;;2101941;28;20029;-71
2022/02/16 04:19:44;;;;;;;4.45;2.67;;;6.70;99.90;;;;;;2109622;28;20063;-72
2022/02/16 04:20:46;;;;;;;4.00;2.63;;;6.70;99.90;;;;;;2115012;28;20047;-72
2022/02/16 04:21:49;;;;;;;5.03;2.50;;;6.70;99.90;;;;;;2097415;28;20107;-73
2022/02/16 04:22:50;;;;;;;4.95;2.70;;;6.70;99.90;;;;;;2106463;28;20032;-72
2022/02/16 04:23:51;;;;;;;6.18;2.95;;;6.70;99.90;;;;;;2113770;28;20127;-73
2022/02/16 04:24:53;;;;;;;5.70;2.60;;;6.60;99.90;;;;;;2105348;28;20028;-73
2022/02/16 04:25:53;;;;;;;6.13;2.55;;;6.70;99.90;;;;;;2105457;28;20112;-71
2022/02/16 04:26:54;;;;;;;4.50;2.58;;;6.70;99.90;;;;;;2113511;28;20394;-71
2022/02/16 04:27:55;;;;;;;3.63;2.40;;;6.60;99.90;;;;;;2114477;28;20023;-71
2022/02/16 04:28:59;;;;;;;3.55;2.40;;;6.70;99.90;;;;;;2106711;28;20039;-71
2022/02/16 04:30:09;;;;;;;6.22;2.60;;;6.70;99.90;;;;;;2114533;28;20022;-71
2022/02/16 04:31:10;;;;;;;3.83;2.28;;;6.70;99.90;;;;;;2114598;28;20048;-72
2022/02/16 04:32:11;;;;;;;5.15;2.50;;;6.70;99.90;;;;;;2114765;28;20031;-71
2022/02/16 04:33:12;;;;;;;3.83;2.50;;;6.70;99.90;;;;;;2106927;28;20012;-71
2022/02/16 04:34:14;;;;;;;4.38;2.58;;;6.70;99.90;;;;;;2114320;28;20024;-72
2022/02/16 04:35:16;;;;;;;3.15;2.30;;;6.70;99.90;;;;;;2114733;28;20190;-73
2022/02/16 04:36:25;;;;;;;4.13;2.40;;;6.70;99.90;;;;;;2114545;28;20036;-72
2022/02/16 04:37:28;;;;;;;5.67;2.60;;;6.70;99.90;;;;;;2099058;28;20025;-72
2022/02/16 04:38:30;;;;;;;3.80;2.40;;;6.70;99.90;;;;;;2097413;28;20267;-71
2022/02/16 04:39:30;;;;;;;3.53;2.40;;;6.70;99.90;;;;;;2114395;28;20399;-72
2022/02/16 04:40:31;;;;;;;4.25;2.60;;;6.70;99.90;;;;;;2114409;28;20020;-72
2022/02/16 04:41:33;;;;;;;3.13;2.30;;;6.70;99.90;;;;;;2122828;27;20114;-71
2022/02/16 04:42:37;;;;;;;3.83;2.30;;;6.70;99.90;;;;;;2122584;27;20011;-71
2022/02/16 04:43:38;;;;;;;5.53;2.50;;;6.70;99.90;;;;;;2114432;28;20015;-71
2022/02/16 04:44:38;;;;;;;4.68;2.50;;;6.70;99.90;;;;;;2105722;28;20085;-72
2022/02/16 04:45:45;;;;;;;2.78;2.30;;;6.70;99.90;;;;;;2097485;28;20028;-71
2022/02/16 04:46:47;;;;;;;4.60;2.30;;;6.70;99.90;;;;;;2098152;28;20024;-72
2022/02/16 04:47:49;;;;;;;5.80;2.50;;;6.80;99.90;;;;;;2105453;28;20031;-72
2022/02/16 04:48:50;;;;;;;5.15;2.50;;;6.70;99.90;;;;;;2113535;28;20518;-71
2022/02/16 04:49:50;;;;;;;3.58;2.33;;;6.70;99.90;;;;;;2113184;28;20106;-71
2022/02/16 04:50:51;;;;;;;4.05;2.40;;;6.80;99.90;;;;;;2096565;28;20020;-71
2022/02/16 04:51:54;;;;;;;3.33;2.13;;;6.80;99.90;;;;;;2097032;28;20070;-72
2022/02/16 04:52:57;;;;;;;5.18;2.20;;;6.70;99.90;;;;;;2105520;28;20056;-72
2022/02/16 04:54:10;;;;;;;5.25;2.40;;;6.70;99.90;;;;;;2106662;28;20540;-74
2022/02/16 04:55:12;;;;;;;4.47;2.60;;;6.70;99.90;;;;;;2105354;28;20503;-72
2022/02/16 04:56:14;;;;;;;3.40;2.30;;;6.70;99.90;;;;;;2114051;27;20020;-72
2022/02/16 04:57:15;;;;;;;4.05;2.40;;;6.70;99.90;;;;;;2113833;28;20529;-72
2022/02/16 04:58:23;;;;;;;6.00;2.65;;;6.70;99.90;;;;;;2097963;28;20039;-72
2022/02/16 04:59:24;;;;;;;3.30;2.08;;;6.70;99.90;;;;;;2098128;28;20499;-72
2022/02/16 05:00:25;;;;;;;5.95;2.50;;;6.70;99.90;;;;;;2104839;28;20111;-72
2022/02/16 05:01:34;;;;;;;4.43;2.40;;;6.70;99.90;;;;;;2113117;28;20026;-71
2022/02/16 05:02:36;;;;;;;6.15;2.67;;;6.70;99.90;;;;;;2097130;28;20040;-72
2022/02/16 05:03:37;;;;;;;5.20;2.60;;;6.70;99.90;;;;;;2097805;28;20536;-72
2022/02/16 05:04:38;;;;;;;5.10;2.22;;;6.70;99.90;;;;;;2105989;28;20020;-71
2022/02/16 05:05:39;;;;;;;6.82;2.60;;;6.70;99.90;;;;;;2106017;28;20126;-73
2022/02/16 05:06:41;;;;;;;6.60;2.60;;;6.70;99.90;;;;;;2106056;28;20513;-73
2022/02/16 05:07:44;;;;;;;4.35;2.30;;;6.80;99.90;;;;;;2106266;28;20024;-72
2022/02/16 05:08:45;;;;;;;4.50;2.30;;;6.80;99.90;;;;;;2106039;28;20020;-72
2022/02/16 05:09:45;;;;;;;4.97;2.58;;;6.80;99.90;;;;;;2113063;28;20503;-72
2022/02/16 05:10:46;;;;;;;5.45;2.40;;;6.80;99.90;;;;;;2113290;28;20491;-72
2022/02/16 05:11:56;;;;;;;6.88;2.40;;;6.80;99.90;;;;;;2105788;28;20116;-72
2022/02/16 05:12:57;;;;;;;5.15;2.60;;;6.80;99.90;;;;;;2113360;28;20023;-71
2022/02/16 05:13:57;;;;;;;3.40;2.28;;;6.80;99.90;;;;;;2113447;28;20026;-73
2022/02/16 05:15:00;;;;;;;2.85;2.10;;;6.80;99.90;;;;;;2121968;27;20433;-72
2022/02/16 05:16:02;;;;;;;3.78;2.35;;;6.80;99.90;;;;;;2104770;28;20115;-73
2022/02/16 05:17:03;;;;;;;4.78;3.28;;;6.80;99.90;;;;;;2096813;28;20051;-73
2022/02/16 05:18:05;;;;;;;4.47;2.90;;;6.80;99.90;;;;;;2105163;28;20421;-72
2022/02/16 05:19:26;;;;;;;4.97;3.05;;;6.80;99.90;;;;;;2099392;28;20067;-72
2022/02/16 05:20:27;;;;;;;5.43;3.45;;;6.70;99.90;;;;;;2107340;28;20418;-72
2022/02/16 05:21:28;;;;;;;7.40;3.28;;;6.70;99.90;;;;;;2105265;28;20093;-72
2022/02/16 05:22:28;;;;;;;7.15;2.50;;;6.70;99.90;;;;;;2105876;28;20024;-74
2022/02/16 05:23:30;;;;;;;4.05;2.40;;;6.70;99.90;;;;;;2105968;28;20072;-73
2022/02/16 05:24:38;;;;;;;6.25;2.97;;;6.70;99.90;;;;;;2098756;28;20732;-71
2022/02/16 05:25:39;;;;;;;4.13;2.33;;;6.70;99.90;;;;;;2104801;28;20038;-71
2022/02/16 05:26:42;;;;;;;3.22;2.20;;;6.70;99.90;;;;;;2104964;28;20403;-71
2022/02/16 05:27:43;;;;;;;3.70;2.30;;;6.70;99.90;;;;;;2104773;28;20390;-71
2022/02/16 05:28:44;;;;;;;6.25;2.60;;;6.70;99.90;;;;;;2104725;28;20028;-72
2022/02/16 05:29:45;;;;;;;5.30;3.33;;;6.70;99.90;;;;;;2104311;28;20114;-72
2022/02/16 05:30:48;;;;;;;4.60;3.08;;;6.70;99.90;;;;;;2096610;28;20078;-71
2022/02/16 05:31:49;;;;;;;6.00;3.22;;;6.70;99.90;;;;;;2096381;28;20081;-70